WetterOnline ( http://www.wetteronline.ch )

Wetter aktuell Ueckermünde

Aktuelles Wetter: Ueckermünde (7m)

6-stündlich | Neueste Meldungen
Ortszeit Temperatur Wetter
Do, 20.09. 14:00 25.5° C leicht bewölkt
Do, 20.09. 8:00 16.3° C wolkig
Do, 20.09. 2:00 17.5° C fast wolkenlos
Mi, 19.09. 20:00 21.2° C leicht bewölkt
Mi, 19.09. 14:00 25.2° C fast wolkenlos
Mi, 19.09. 8:00 14.9° C fast wolkenlos
Mi, 19.09. 2:00 18.7° C wolkenlos
Di, 18.09. 20:00 22.6° C wolkenlos
Ortszeit Temperatur Wetter
Do, 20.09. 18:00 24.5° C bedeckt
Do, 20.09. 17:50 24.5° C bedeckt
Do, 20.09. 17:40 24.6° C bewölkt
Do, 20.09. 17:30 24.9° C wolkig
Do, 20.09. 17:20 24.9° C wolkig
Do, 20.09. 17:10 24.8° C wolkig
Do, 20.09. 17:00 25.9° C wolkig
Do, 20.09. 16:30 25.3° C wolkig
Do, 20.09. 16:00 25.6° C leicht bewölkt
Do, 20.09. 15:30 26.0° C wolkenlos
Do, 20.09. 15:00 24.9° C wolkig
Ortszeit Relative Feuchte Sichtweite
Do, 20.09. 14:00 46% 30 km
Do, 20.09. 8:00 81% 22 km
Do, 20.09. 2:00 76% 30 km
Mi, 19.09. 20:00 62% 40 km
Mi, 19.09. 14:00 49% 29 km
Mi, 19.09. 8:00 90% 19 km
Mi, 19.09. 2:00 61% 40 km
Di, 18.09. 20:00 49% 40 km
Ortszeit Relative Feuchte Sichtweite
Do, 20.09. 18:00 49% 50 km
Do, 20.09. 17:50 49% -
Do, 20.09. 17:40 49% -
Do, 20.09. 17:30 47% 60 km
Do, 20.09. 17:20 47% -
Do, 20.09. 17:10 47% -
Do, 20.09. 17:00 44% 55 km
Do, 20.09. 16:30 47% 50 km
Do, 20.09. 16:00 44% 35 km
Do, 20.09. 15:30 44% 24 km
Do, 20.09. 15:00 47% 28 km
Ortszeit Niederschlagsmenge Niederschlagsart
Do, 20.09. 14:00 0.0 l/m2 in 6 Std. -
Do, 20.09. 8:00 0.0 l/m2 in 12 Std. -
Do, 20.09. 2:00 0.0 l/m2 in 6 Std. -
Mi, 19.09. 20:00 0.0 l/m2 in 12 Std. -
Mi, 19.09. 14:00 0.0 l/m2 in 6 Std. -
Mi, 19.09. 8:00 0.0 l/m2 in 12 Std. -
Mi, 19.09. 2:00 0.0 l/m2 in 6 Std. -
Di, 18.09. 20:00 0.0 l/m2 in 12 Std. -
Ortszeit Niederschlagsmenge Niederschlagsart
Do, 20.09. 18:00 0.0 l/m2 in 1 Std. -
Do, 20.09. 17:50 keine Meldung -
Do, 20.09. 17:40 keine Meldung -
Do, 20.09. 17:30 0.0 l/m2 in 1 Std. -
Do, 20.09. 17:20 keine Meldung -
Do, 20.09. 17:10 keine Meldung -
Do, 20.09. 17:00 0.0 l/m2 in 1 Std. -
Do, 20.09. 16:30 0.0 l/m2 in 1 Std. -
Do, 20.09. 16:00 0.0 l/m2 in 1 Std. -
Do, 20.09. 15:30 0.0 l/m2 in 1 Std. -
Do, 20.09. 15:00 0.0 l/m2 in 1 Std. -
Ortszeit Stärke Spitze Richtung
km/h Bft. km/h Grad Sektor
Do, 20.09. 14:00 22 4 37 230° SW
Do, 20.09. 8:00 7 2 14 200° S
Do, 20.09. 2:00 11 2 18 190° S
Mi, 19.09. 20:00 7 2 32 150° SO
Mi, 19.09. 14:00 15 3 26 220° SW
Mi, 19.09. 8:00 7 2 14 220° SW
Mi, 19.09. 2:00 7 2 29 300° NW
Di, 18.09. 20:00 11 2 40 160° S
Ortszeit Stärke Spitze Richtung
km/h Bft. km/h Grad Sektor
Do, 20.09. 18:00 7 2 25 230° SW
Do, 20.09. 17:50 7 2 - 230° SW
Do, 20.09. 17:40 9 2 - 230° SW
Do, 20.09. 17:30 11 2 25 220° SW
Do, 20.09. 17:20 11 2 - 220° SW
Do, 20.09. 17:10 14 3 - 220° SW
Do, 20.09. 17:00 14 3 29 220° SW
Do, 20.09. 16:30 15 3 26 220° SW
Do, 20.09. 16:00 18 3 36 230° SW
Do, 20.09. 15:30 22 4 37 250° W
Do, 20.09. 15:00 22 4 44 240° SW
Ortszeit Untergrenze Bedeckung Gattung
total tief tief mittel hoch
Do, 20.09. 14:00 1500 m 3/8 2/8 - - -
Do, 20.09. 8:00 7500 m 8/8 0/8 - - -
Do, 20.09. 2:00 2100 m 1/8 1/8 - - -
Mi, 19.09. 20:00 10500 m 6/8 0/8 - - -
Mi, 19.09. 14:00 9000 m 2/8 0/8 - - -
Mi, 19.09. 8:00 9000 m 2/8 0/8 - - -
Mi, 19.09. 2:00 - 0/8 0/8 - - -
Di, 18.09. 20:00 - 0/8 0/8 - - -
Ortszeit Bedeckungsgrad in Achtel und Wolkenuntergrenze
Do, 20.09. 18:00 8(6600m)
Do, 20.09. 17:50 8(6600m)
Do, 20.09. 17:40 7(6900m) 8(7500m)
Do, 20.09. 17:30 2(1800m) 7(7500m) 8(9000m)
Do, 20.09. 17:20 2(1800m) 7(7500m) 8(9000m)
Do, 20.09. 17:10 3(1800m) 6(7500m) 8(9000m)
Do, 20.09. 17:00 1(1800m) 7(9000m) 7(9000m)
Do, 20.09. 16:30 4(1800m) 5(9000m) 5(10500m)
Do, 20.09. 16:00 3(1800m) 4(10500m)
Do, 20.09. 15:30 keine Wolken
Do, 20.09. 15:00 2(1500m) 7(10500m)
Ortszeit Luftdruck NN (hPa) Tendenz (hPa in 3 Std.)
Do, 20.09. 14:00 1016 - 1,3
Do, 20.09. 8:00 1017 + 0,6
Do, 20.09. 2:00 1016 - 0,2
Mi, 19.09. 20:00 1016 - 0,3
Mi, 19.09. 14:00 1017 - 0,9
Mi, 19.09. 8:00 1017 + 1,2
Mi, 19.09. 2:00 1014 + 1,5
Di, 18.09. 20:00 1013 0,0
Ortszeit Luftdruck NN (hPa) Tendenz (hPa in 3 Std.)
Do, 20.09. 18:00 1015 - 0,8
Do, 20.09. 17:50 1015 keine Meldung
Do, 20.09. 17:40 1015 keine Meldung
Do, 20.09. 17:30 1015 - 1,1
Do, 20.09. 17:20 1015 keine Meldung
Do, 20.09. 17:10 1015 keine Meldung
Do, 20.09. 17:00 1015 - 1,1
Do, 20.09. 16:30 1015 - 1,3
Do, 20.09. 16:00 1015 - 1,0
Do, 20.09. 15:30 1015 - 1,4
Do, 20.09. 15:00 1015 - 1,3
Ortszeit Schneehöhe (cm)
Do, 20.09. 14:00 -
Do, 20.09. 8:00 -
Do, 20.09. 2:00 -
Mi, 19.09. 20:00 -
Mi, 19.09. 14:00 -
Mi, 19.09. 8:00 -
Mi, 19.09. 2:00 -
Di, 18.09. 20:00 -
Ortszeit Schneehöhe (cm)
Do, 20.09. 18:00 -
Do, 20.09. 17:50 -
Do, 20.09. 17:40 -
Do, 20.09. 17:30 -
Do, 20.09. 17:20 -
Do, 20.09. 17:10 -
Do, 20.09. 17:00 -
Do, 20.09. 16:30 -
Do, 20.09. 16:00 -
Do, 20.09. 15:30 -
Do, 20.09. 15:00 -
Link zu dieser Seite / Seite empfehlen

Das Wetter in ...